createdAt,value
2019-05-30T00:01:34.274Z,101877.51
2019-05-30T00:04:04.880Z,101873.52
2019-05-30T00:06:34.408Z,101875.25
2019-05-30T00:09:05.644Z,101873.02
2019-05-30T00:11:35.169Z,101870.37
2019-05-30T00:14:05.029Z,101867.64
2019-05-30T00:16:34.532Z,101871.56
2019-05-30T00:19:05.036Z,101876.48
2019-05-30T00:21:34.589Z,101870.30
2019-05-30T00:24:04.320Z,101873.02
2019-05-30T00:26:34.805Z,101866.02
2019-05-30T00:29:04.562Z,101872.77
2019-05-30T00:31:34.133Z,101870.67
2019-05-30T00:34:05.850Z,101871.56
2019-05-30T00:36:35.479Z,101863.27
2019-05-30T00:39:07.287Z,101865.56
2019-05-30T00:41:36.677Z,101862.14
2019-05-30T00:44:06.335Z,101864.43
2019-05-30T00:46:35.847Z,101861.05
2019-05-30T00:49:06.507Z,101857.56
2019-05-30T00:51:36.194Z,101859.91
2019-05-30T00:54:06.876Z,101855.56
2019-05-30T00:56:36.570Z,101853.38
2019-05-30T00:59:07.656Z,101858.69
2019-05-30T01:01:37.044Z,101854.30
2019-05-30T01:04:07.545Z,101855.09
2019-05-30T01:06:37.044Z,101854.64
2019-05-30T01:09:07.502Z,101854.64
2019-05-30T01:11:36.903Z,101853.77
2019-05-30T01:14:07.536Z,101861.24
2019-05-30T01:16:37.052Z,101861.64
2019-05-30T01:19:07.339Z,101860.77
2019-05-30T01:21:36.988Z,101856.80
2019-05-30T01:24:07.719Z,101850.98
2019-05-30T01:26:37.151Z,101849.19
2019-05-30T01:29:07.638Z,101846.50
2019-05-30T01:31:38.158Z,101843.38
2019-05-30T01:34:07.991Z,101836.28
2019-05-30T01:36:38.429Z,101841.09
2019-05-30T01:39:08.240Z,101845.88
2019-05-30T01:41:37.870Z,101841.42
2019-05-30T01:44:08.373Z,101841.02
2019-05-30T01:46:37.790Z,101837.05
2019-05-30T01:49:08.592Z,101830.87
2019-05-30T01:51:38.259Z,101836.58
2019-05-30T01:54:08.820Z,101829.07
2019-05-30T01:56:38.214Z,101827.28
2019-05-30T01:59:08.805Z,101822.90
2019-05-30T02:01:38.250Z,101822.94
2019-05-30T02:04:07.681Z,101815.43
2019-05-30T02:06:38.108Z,101815.43
2019-05-30T02:09:09.543Z,101814.10
2019-05-30T02:11:39.206Z,101816.39
2019-05-30T02:14:09.803Z,101816.00
2019-05-30T02:16:39.361Z,101821.77
2019-05-30T02:19:10.539Z,101821.81
2019-05-30T02:21:40.558Z,101821.88
2019-05-30T02:24:12.086Z,101823.56
2019-05-30T02:26:41.280Z,101830.70
2019-05-30T02:29:10.656Z,101829.87
2019-05-30T02:31:40.205Z,101823.66
2019-05-30T02:34:12.257Z,101829.02
2019-05-30T02:36:41.763Z,101834.32
2019-05-30T02:39:11.936Z,101829.02
2019-05-30T02:41:42.856Z,101838.70
2019-05-30T02:44:12.655Z,101833.86
2019-05-30T02:46:42.133Z,101835.65
2019-05-30T02:49:13.710Z,101835.16
2019-05-30T02:51:42.664Z,101836.87
2019-05-30T02:54:13.240Z,101828.45
2019-05-30T02:56:42.937Z,101838.97
2019-05-30T02:59:13.587Z,101834.55
2019-05-30T03:02:00.083Z,101833.16
2019-05-30T03:04:14.775Z,101839.80
2019-05-30T03:06:45.465Z,101838.44
2019-05-30T03:09:15.105Z,101835.71
2019-05-30T03:11:44.520Z,101835.81
2019-05-30T03:14:19.113Z,101842.42
2019-05-30T03:16:46.290Z,101833.63
2019-05-30T03:19:15.641Z,101846.91
2019-05-30T03:21:45.067Z,101846.41
2019-05-30T03:24:14.555Z,101841.62
2019-05-30T03:26:44.197Z,101840.83
2019-05-30T03:29:14.395Z,101846.14
2019-05-30T03:31:45.356Z,101844.84
2019-05-30T03:34:25.503Z,101843.65
2019-05-30T03:36:46.143Z,101854.20
2019-05-30T03:39:15.718Z,101842.72
2019-05-30T03:41:46.005Z,101859.78
2019-05-30T03:44:15.849Z,101851.84
2019-05-30T03:46:48.463Z,101856.23
2019-05-30T03:49:20.817Z,101853.17
2019-05-30T03:51:52.134Z,101857.63
2019-05-30T03:54:23.538Z,101859.42
2019-05-30T03:57:04.730Z,101858.48
2019-05-30T03:59:43.862Z,101857.16
2019-05-30T04:02:16.291Z,101857.53
2019-05-30T04:04:48.767Z,101858.45
2019-05-30T04:07:21.197Z,101847.20
2019-05-30T04:09:53.985Z,101857.33
2019-05-30T04:12:29.395Z,101853.94
2019-05-30T04:15:08.380Z,101850.89
2019-05-30T04:17:38.873Z,101861.91
2019-05-30T04:20:09.336Z,101862.38
2019-05-30T04:22:39.248Z,101864.92
2019-05-30T04:25:10.077Z,101873.92
2019-05-30T04:27:39.439Z,101879.83
2019-05-30T04:30:09.978Z,101877.73
2019-05-30T04:32:39.415Z,101880.33
2019-05-30T04:35:10.244Z,101874.25
2019-05-30T04:37:39.953Z,101873.84
2019-05-30T04:40:11.309Z,101876.73
2019-05-30T04:42:41.047Z,101885.07
2019-05-30T04:45:11.826Z,101879.73
2019-05-30T04:47:41.610Z,101881.70
2019-05-30T04:50:14.227Z,101884.81
2019-05-30T04:52:43.647Z,101886.08
2019-05-30T04:55:15.991Z,101885.92
2019-05-30T04:57:45.249Z,101884.28
2019-05-30T05:00:17.001Z,101889.80
2019-05-30T05:02:46.632Z,101889.45
2019-05-30T05:05:22.641Z,101884.66
2019-05-30T05:07:47.159Z,101886.98
2019-05-30T05:10:18.224Z,101881.84
2019-05-30T05:12:47.694Z,101907.23
2019-05-30T05:15:18.551Z,101897.22
2019-05-30T05:17:48.062Z,101900.97
2019-05-30T05:20:17.417Z,101898.47
2019-05-30T05:22:46.785Z,101902.03
2019-05-30T05:25:17.359Z,101902.44
2019-05-30T05:27:46.877Z,101905.52
2019-05-30T05:30:18.081Z,101905.02
2019-05-30T05:32:47.448Z,101907.16
2019-05-30T05:35:18.671Z,101905.76
2019-05-30T05:37:48.107Z,101905.24
2019-05-30T05:40:18.138Z,101903.46
2019-05-30T05:42:47.570Z,101904.69
2019-05-30T05:45:18.269Z,101914.28
2019-05-30T05:47:47.619Z,101917.30
2019-05-30T05:50:18.366Z,101915.37
2019-05-30T05:52:47.917Z,101916.59
2019-05-30T05:55:17.293Z,101918.71
2019-05-30T05:57:46.698Z,101911.92
2019-05-30T06:00:16.861Z,101918.83
2019-05-30T06:02:46.255Z,101923.15
2019-05-30T06:05:15.982Z,101920.02
2019-05-30T06:07:45.410Z,101922.48
2019-05-30T06:10:14.856Z,101925.47
2019-05-30T06:12:44.242Z,101929.59
2019-05-30T06:15:13.946Z,101926.88
2019-05-30T06:17:43.425Z,101932.33
2019-05-30T06:20:13.642Z,101934.59
2019-05-30T06:22:43.051Z,101938.57
2019-05-30T06:25:13.560Z,101937.70
2019-05-30T06:27:43.148Z,101944.33
2019-05-30T06:30:14.128Z,101938.19
2019-05-30T06:32:43.582Z,101938.73
2019-05-30T06:35:13.962Z,101941.77
2019-05-30T06:37:43.547Z,101930.53
2019-05-30T06:40:13.486Z,101940.52
2019-05-30T06:42:45.973Z,101938.56
2019-05-30T06:45:14.174Z,101934.81
2019-05-30T06:47:43.713Z,101938.61
2019-05-30T06:50:13.437Z,101936.16
2019-05-30T06:52:44.037Z,101943.89
2019-05-30T06:55:13.778Z,101950.04
2019-05-30T06:57:43.232Z,101949.00
2019-05-30T07:00:13.075Z,101957.34
2019-05-30T07:02:42.465Z,101958.57
2019-05-30T07:05:12.782Z,101962.78
2019-05-30T07:07:42.895Z,101966.03
2019-05-30T07:10:12.989Z,101963.27
2019-05-30T07:12:42.444Z,101970.98
2019-05-30T07:15:12.476Z,101971.14
2019-05-30T07:17:41.945Z,101970.52
2019-05-30T07:20:12.871Z,101971.75
2019-05-30T07:22:42.563Z,101976.66
2019-05-30T07:25:12.658Z,101983.52
2019-05-30T07:27:42.296Z,101977.12
2019-05-30T07:30:14.118Z,101982.25
2019-05-30T07:32:43.543Z,101985.52
2019-05-30T07:35:13.399Z,101985.19
2019-05-30T07:37:46.401Z,101988.61
2019-05-30T07:40:19.485Z,101984.99
2019-05-30T07:42:45.772Z,101989.31
2019-05-30T07:45:16.326Z,101988.72
2019-05-30T07:47:45.720Z,101998.22
2019-05-30T07:50:15.423Z,101996.59
2019-05-30T07:52:45.019Z,101991.30
2019-05-30T07:55:17.037Z,101977.58
2019-05-30T07:57:46.605Z,101986.78
2019-05-30T08:00:17.025Z,101990.56
2019-05-30T08:02:47.092Z,101984.09
2019-05-30T08:05:23.949Z,101993.66
2019-05-30T08:07:47.993Z,102001.32
2019-05-30T08:10:17.710Z,101998.02
2019-05-30T08:12:47.096Z,101996.43
2019-05-30T08:15:16.885Z,101991.39
2019-05-30T08:17:46.351Z,101992.25
2019-05-30T08:20:17.647Z,101995.02
2019-05-30T08:22:47.056Z,102007.79
2019-05-30T08:25:16.834Z,101993.83
2019-05-30T08:27:46.242Z,101996.50
2019-05-30T08:30:16.517Z,101992.44
2019-05-30T08:32:46.051Z,101992.00
2019-05-30T08:35:15.693Z,101990.53
2019-05-30T08:37:45.100Z,101984.52
2019-05-30T08:40:14.918Z,101996.02
2019-05-30T08:42:44.505Z,101992.31
2019-05-30T08:45:14.714Z,101990.05
2019-05-30T08:47:44.834Z,101992.60
2019-05-30T08:50:15.715Z,101994.00
2019-05-30T08:52:45.135Z,101988.61
2019-05-30T08:55:14.837Z,101991.92
2019-05-30T08:57:44.215Z,101992.78
2019-05-30T09:00:15.561Z,101992.20
2019-05-30T09:02:45.215Z,101997.70
2019-05-30T09:05:14.936Z,101989.56
2019-05-30T09:07:44.648Z,101989.37
2019-05-30T09:10:14.528Z,101988.05
2019-05-30T09:12:49.012Z,101988.59
2019-05-30T09:15:34.871Z,101976.81
2019-05-30T09:18:04.557Z,101981.88
2019-05-30T09:20:34.150Z,101981.40
2019-05-30T09:23:03.884Z,101979.30
2019-05-30T09:25:33.725Z,101977.83
2019-05-30T09:28:04.418Z,101994.61
2019-05-30T09:30:34.020Z,102000.24
2019-05-30T09:33:03.423Z,101997.62
2019-05-30T09:35:34.468Z,102009.53
2019-05-30T09:38:05.917Z,102011.08
2019-05-30T09:40:35.448Z,102009.36
2019-05-30T09:43:05.218Z,102009.25
2019-05-30T09:45:35.786Z,102003.45
2019-05-30T09:48:05.417Z,102003.92
2019-05-30T09:50:34.792Z,102006.86
2019-05-30T09:53:04.483Z,102007.83
2019-05-30T09:55:34.292Z,102007.47
2019-05-30T09:58:04.053Z,102007.03
2019-05-30T10:00:34.281Z,102003.94
2019-05-30T10:03:04.165Z,102006.86
2019-05-30T10:05:34.019Z,102005.42
2019-05-30T10:08:03.597Z,102007.11
2019-05-30T10:10:33.045Z,101999.33
2019-05-30T10:13:02.674Z,102006.90
2019-05-30T10:15:32.282Z,102004.37
2019-05-30T10:18:01.636Z,102004.37
2019-05-30T10:20:32.125Z,102004.11
2019-05-30T10:23:03.583Z,102014.56
2019-05-30T10:25:32.597Z,102019.81
2019-05-30T10:28:01.984Z,102026.17
2019-05-30T10:30:31.701Z,102022.70
2019-05-30T10:33:01.080Z,102024.38
2019-05-30T10:35:30.769Z,102014.09
2019-05-30T10:38:00.224Z,102012.59
2019-05-30T10:40:32.101Z,102011.17
2019-05-30T10:43:00.994Z,102009.61
2019-05-30T10:45:30.437Z,102007.41
2019-05-30T10:48:00.470Z,102000.86
2019-05-30T10:50:31.001Z,102001.62
2019-05-30T10:53:00.434Z,102011.48
2019-05-30T10:55:30.044Z,102014.81
2019-05-30T10:57:59.824Z,102013.48
2019-05-30T11:00:41.286Z,102013.14
2019-05-30T11:03:10.700Z,102026.39
2019-05-30T11:05:40.049Z,102030.53
2019-05-30T11:08:12.483Z,102028.20
2019-05-30T11:10:42.901Z,102030.14
2019-05-30T11:13:15.388Z,102032.34
2019-05-30T11:15:45.122Z,102029.11
2019-05-30T11:18:14.808Z,102023.16
2019-05-30T11:20:44.437Z,102034.86
2019-05-30T11:23:13.832Z,102030.70
2019-05-30T11:25:43.223Z,102041.11
2019-05-30T11:28:12.783Z,102022.05
2019-05-30T11:30:42.158Z,102035.95
2019-05-30T11:33:12.625Z,102039.66
2019-05-30T11:35:42.090Z,102040.78
2019-05-30T11:38:11.476Z,102039.62
2019-05-30T11:40:41.316Z,102035.91
2019-05-30T11:43:10.852Z,102030.15
2019-05-30T11:45:40.863Z,102039.02
2019-05-30T11:48:10.639Z,102037.50
2019-05-30T11:50:40.016Z,102031.69
2019-05-30T11:53:09.499Z,102032.92
2019-05-30T11:55:39.112Z,102036.95
2019-05-30T11:58:08.772Z,102035.00
2019-05-30T12:00:38.146Z,102024.28
2019-05-30T12:03:07.525Z,102038.78
2019-05-30T12:05:36.916Z,102035.16
2019-05-30T12:08:06.385Z,102049.05
2019-05-30T12:10:36.062Z,102051.36
2019-05-30T12:13:05.604Z,102050.70
2019-05-30T12:15:34.978Z,102051.38
2019-05-30T12:18:04.522Z,102052.02
2019-05-30T12:20:34.867Z,102053.55
2019-05-30T12:23:04.898Z,102054.62
2019-05-30T12:25:34.468Z,102056.23
2019-05-30T12:28:04.882Z,102053.84
2019-05-30T12:30:34.530Z,102061.80
2019-05-30T12:33:04.074Z,102059.26
2019-05-30T12:35:34.039Z,102055.83
2019-05-30T12:38:06.509Z,102058.92
2019-05-30T12:40:34.477Z,102058.84
2019-05-30T12:43:04.987Z,102060.32
2019-05-30T12:45:35.764Z,102059.63
2019-05-30T12:48:05.575Z,102055.77
2019-05-30T12:50:34.951Z,102065.45
2019-05-30T12:53:05.681Z,102055.67
2019-05-30T12:55:37.566Z,102057.42
2019-05-30T12:58:07.186Z,102060.83
2019-05-30T13:00:38.301Z,102057.52
2019-05-30T13:03:07.732Z,102061.16
2019-05-30T13:05:37.330Z,102054.33
2019-05-30T13:08:20.463Z,102053.64
2019-05-30T13:10:37.964Z,102050.52
2019-05-30T13:13:07.381Z,102053.79
2019-05-30T13:15:36.917Z,102048.42
2019-05-30T13:18:07.151Z,102043.91
2019-05-30T13:20:36.772Z,102051.49
2019-05-30T13:23:07.014Z,102052.83
2019-05-30T13:25:36.400Z,102051.05
2019-05-30T13:28:08.404Z,102053.98
2019-05-30T13:30:37.320Z,102055.06
2019-05-30T13:33:06.968Z,102052.28
2019-05-30T13:35:36.622Z,102044.15
2019-05-30T13:38:07.600Z,102056.27
2019-05-30T13:40:37.294Z,102052.08
2019-05-30T13:43:08.010Z,102053.97
2019-05-30T13:45:37.610Z,102054.70
2019-05-30T13:48:06.987Z,102057.77
2019-05-30T13:50:36.442Z,102058.77
2019-05-30T13:53:07.404Z,102057.41
2019-05-30T13:55:36.909Z,102053.38
2019-05-30T13:58:06.302Z,102057.52
2019-05-30T14:00:36.050Z,102060.26
2019-05-30T14:03:06.275Z,102056.66
2019-05-30T14:05:35.891Z,102065.47
2019-05-30T14:08:09.173Z,102070.17
2019-05-30T14:10:36.596Z,102063.00
2019-05-30T14:13:06.710Z,102068.92
2019-05-30T14:15:36.215Z,102073.59
2019-05-30T14:18:07.287Z,102076.94
2019-05-30T14:20:36.713Z,102077.50
2019-05-30T14:23:07.367Z,102073.17
2019-05-30T14:25:36.807Z,102076.05
2019-05-30T14:28:06.381Z,102075.86
2019-05-30T14:30:35.981Z,102069.92
2019-05-30T14:33:06.074Z,102070.84
2019-05-30T14:35:35.493Z,102077.79
2019-05-30T14:38:04.881Z,102081.83
2019-05-30T14:40:34.402Z,102084.73
2019-05-30T14:43:05.210Z,102088.39
2019-05-30T14:45:34.918Z,102077.83
2019-05-30T14:48:04.803Z,102079.94
2019-05-30T14:50:34.923Z,102081.57
2019-05-30T14:53:04.673Z,102072.75
2019-05-30T14:55:34.363Z,102082.58
2019-05-30T14:58:07.154Z,102077.63
2019-05-30T15:00:36.892Z,102073.02
2019-05-30T15:03:09.156Z,102069.42
2019-05-30T15:05:38.025Z,102070.62
2019-05-30T15:08:08.411Z,102067.07
2019-05-30T15:10:37.940Z,102067.16
2019-05-30T15:13:07.531Z,102065.58
2019-05-30T15:15:37.012Z,102054.22
2019-05-30T15:18:07.163Z,102062.10
2019-05-30T15:20:36.641Z,102055.28
2019-05-30T15:23:07.538Z,102051.95
2019-05-30T15:25:37.106Z,102051.39
2019-05-30T15:28:07.895Z,102044.36
2019-05-30T15:30:37.974Z,102039.53
2019-05-30T15:33:08.273Z,102042.11
2019-05-30T15:35:37.856Z,102039.05
2019-05-30T15:38:08.782Z,102044.87
2019-05-30T15:40:38.167Z,102047.49
2019-05-30T15:43:07.746Z,102048.50
2019-05-30T15:45:37.143Z,102046.48
2019-05-30T15:48:08.159Z,102045.08
2019-05-30T15:50:37.710Z,102041.03
2019-05-30T15:53:07.343Z,102037.64
2019-05-30T15:55:36.669Z,102026.45
2019-05-30T15:58:06.114Z,102043.91
2019-05-30T16:00:37.042Z,102049.48
2019-05-30T16:03:06.568Z,102054.52
2019-05-30T16:05:37.146Z,102048.70
2019-05-30T16:08:06.534Z,102055.70
2019-05-30T16:10:36.959Z,102052.19
2019-05-30T16:13:07.469Z,102055.05
2019-05-30T16:15:37.146Z,102060.70
2019-05-30T16:18:06.892Z,102046.22
2019-05-30T16:20:36.366Z,102039.81
2019-05-30T16:23:05.821Z,102040.34
2019-05-30T16:25:35.408Z,102044.98
2019-05-30T16:28:05.378Z,102047.23
2019-05-30T16:30:35.070Z,102029.28
2019-05-30T16:33:04.760Z,102034.77
2019-05-30T16:35:34.217Z,102036.61
2019-05-30T16:38:04.049Z,102027.59
2019-05-30T16:40:33.818Z,102035.59
2019-05-30T16:43:03.436Z,102036.91
2019-05-30T16:45:32.787Z,102031.82
2019-05-30T16:48:02.333Z,102030.66
2019-05-30T16:50:31.900Z,102031.28
2019-05-30T16:53:01.271Z,102029.66
2019-05-30T16:55:31.150Z,102029.08
2019-05-30T16:58:00.600Z,102026.52
2019-05-30T17:00:30.163Z,102028.78
2019-05-30T17:03:00.093Z,102023.36
2019-05-30T17:05:32.451Z,102024.58
2019-05-30T17:08:00.712Z,102026.37
2019-05-30T17:10:33.114Z,102023.17
2019-05-30T17:13:01.243Z,102022.53
2019-05-30T17:15:30.781Z,102014.52
2019-05-30T17:18:00.143Z,102026.69
2019-05-30T17:20:29.792Z,102032.30
2019-05-30T17:22:59.190Z,102030.98
2019-05-30T17:25:28.597Z,102035.27
2019-05-30T17:27:59.016Z,102032.59
2019-05-30T17:30:28.933Z,102028.09
2019-05-30T17:32:58.601Z,102032.66
2019-05-30T17:35:28.517Z,102036.45
2019-05-30T17:37:58.044Z,102036.03
2019-05-30T17:40:41.182Z,102035.72
2019-05-30T17:42:58.837Z,102037.70
2019-05-30T17:45:29.347Z,102037.88
2019-05-30T17:48:15.321Z,102038.52
2019-05-30T17:50:30.240Z,102041.98
2019-05-30T17:52:59.727Z,102045.48
2019-05-30T17:55:30.107Z,102045.80
2019-05-30T17:58:00.683Z,102039.97
2019-05-30T18:00:30.662Z,102044.05
2019-05-30T18:03:00.168Z,102040.13
2019-05-30T18:05:30.860Z,102043.98
2019-05-30T18:08:00.363Z,102043.13
2019-05-30T18:10:31.090Z,102043.41
2019-05-30T18:13:01.855Z,102042.48
2019-05-30T18:15:32.504Z,102032.31
2019-05-30T18:18:02.071Z,102034.07
2019-05-30T18:20:39.954Z,102043.93
2019-05-30T18:23:04.289Z,102050.20
2019-05-30T18:25:34.369Z,102047.30
2019-05-30T18:28:04.029Z,102060.11
2019-05-30T18:30:41.461Z,102059.70
2019-05-30T18:33:11.212Z,102063.87
2019-05-30T18:35:40.788Z,102062.30
2019-05-30T18:38:10.263Z,102059.87
2019-05-30T18:40:40.037Z,102061.90
2019-05-30T18:43:09.459Z,102067.02
2019-05-30T18:45:42.049Z,102064.41
2019-05-30T18:48:12.791Z,102067.77
2019-05-30T18:50:42.442Z,102065.34
2019-05-30T18:53:11.942Z,102065.07
2019-05-30T18:55:41.393Z,102071.31
2019-05-30T18:58:11.074Z,102073.81
2019-05-30T19:00:40.447Z,102076.49
2019-05-30T19:03:10.002Z,102076.70
2019-05-30T19:05:40.427Z,102076.46
2019-05-30T19:08:10.117Z,102077.09
2019-05-30T19:10:39.652Z,102077.23
2019-05-30T19:13:09.033Z,102077.05
2019-05-30T19:15:38.437Z,102077.48
2019-05-30T19:18:09.205Z,102081.46
2019-05-30T19:20:38.854Z,102087.20
2019-05-30T19:23:08.474Z,102085.91
2019-05-30T19:25:37.973Z,102091.98
2019-05-30T19:28:08.317Z,102086.91
2019-05-30T19:30:40.984Z,102091.67
2019-05-30T19:33:09.043Z,102096.30
2019-05-30T19:35:38.498Z,102096.09
2019-05-30T19:38:08.129Z,102094.09
2019-05-30T19:40:38.057Z,102102.51
2019-05-30T19:43:07.575Z,102100.11
2019-05-30T19:45:38.353Z,102105.80
2019-05-30T19:48:07.785Z,102110.94
2019-05-30T19:50:37.187Z,102116.93
2019-05-30T19:53:06.917Z,102117.53
2019-05-30T19:55:37.441Z,102123.00
2019-05-30T19:58:06.984Z,102124.04
2019-05-30T20:00:54.389Z,102121.94
2019-05-30T20:03:07.870Z,102131.89
2019-05-30T20:05:38.807Z,102132.02
2019-05-30T20:08:09.435Z,102133.43
2019-05-30T20:10:39.290Z,102135.67
2019-05-30T20:13:09.752Z,102135.23
2019-05-30T20:15:39.625Z,102135.88
2019-05-30T20:18:09.243Z,102138.28
2019-05-30T20:20:53.876Z,102137.12
2019-05-30T20:23:09.963Z,102141.72
2019-05-30T20:25:43.713Z,102141.11
2019-05-30T20:28:11.693Z,102144.80
2019-05-30T20:30:41.248Z,102146.46
2019-05-30T20:33:10.700Z,102150.70
2019-05-30T20:35:41.461Z,102149.19
2019-05-30T20:38:11.208Z,102153.42
2019-05-30T20:40:40.981Z,102155.34
2019-05-30T20:43:10.414Z,102153.73
2019-05-30T20:45:46.467Z,102155.66
2019-05-30T20:48:11.035Z,102156.64
2019-05-30T20:50:41.194Z,102158.45
2019-05-30T20:53:10.992Z,102167.31
2019-05-30T20:55:40.497Z,102163.89
2019-05-30T20:58:10.110Z,102163.07
2019-05-30T21:00:41.830Z,102167.11
2019-05-30T21:03:11.588Z,102168.87
2019-05-30T21:05:42.072Z,102170.72
2019-05-30T21:08:12.460Z,102171.66
2019-05-30T21:10:43.599Z,102175.70
2019-05-30T21:13:13.080Z,102179.37
2019-05-30T21:15:44.045Z,102172.08
2019-05-30T21:18:13.434Z,102179.25
2019-05-30T21:20:44.078Z,102178.11
2019-05-30T21:23:13.564Z,102182.30
2019-05-30T21:25:43.249Z,102190.98
2019-05-30T21:28:12.722Z,102189.50
2019-05-30T21:30:43.326Z,102189.69
2019-05-30T21:33:13.865Z,102182.77
2019-05-30T21:35:43.856Z,102188.28
2019-05-30T21:38:13.505Z,102187.56
2019-05-30T21:40:44.440Z,102188.06
2019-05-30T21:43:13.994Z,102185.91
2019-05-30T21:45:44.596Z,102182.37
2019-05-30T21:48:14.132Z,102183.41
2019-05-30T21:50:45.965Z,102186.65
2019-05-30T21:53:14.863Z,102189.42
2019-05-30T21:55:44.494Z,102189.92
2019-05-30T21:58:13.875Z,102183.73
2019-05-30T22:00:46.674Z,102188.95
2019-05-30T22:03:16.540Z,102194.53
2019-05-30T22:05:48.143Z,102192.92
2019-05-30T22:08:17.133Z,102190.98
2019-05-30T22:10:47.687Z,102193.17
2019-05-30T22:13:17.309Z,102196.16
2019-05-30T22:15:48.231Z,102195.63
2019-05-30T22:18:17.909Z,102194.15
2019-05-30T22:20:47.999Z,102194.91
2019-05-30T22:23:17.502Z,102197.86
2019-05-30T22:25:48.197Z,102200.38
2019-05-30T22:28:17.711Z,102203.83
2019-05-30T22:30:48.343Z,102203.80
2019-05-30T22:33:18.627Z,102199.41
2019-05-30T22:35:48.924Z,102199.33
2019-05-30T22:38:18.390Z,102199.18
2019-05-30T22:40:47.992Z,102199.69
2019-05-30T22:43:25.260Z,102197.02
2019-05-30T22:45:50.307Z,102196.09
2019-05-30T22:48:19.648Z,102192.05
2019-05-30T22:50:49.059Z,102199.58
2019-05-30T22:53:18.682Z,102205.30
2019-05-30T22:55:49.307Z,102205.41
2019-05-30T22:58:19.057Z,102204.62
2019-05-30T23:00:48.414Z,102209.05
2019-05-30T23:03:18.088Z,102205.12
2019-05-30T23:05:47.539Z,102204.38
2019-05-30T23:08:16.923Z,102202.93
2019-05-30T23:10:47.639Z,102210.17
2019-05-30T23:13:17.192Z,102205.06
2019-05-30T23:15:46.620Z,102204.80
2019-05-30T23:18:15.999Z,102204.48
2019-05-30T23:20:46.563Z,102200.09
2019-05-30T23:23:16.330Z,102205.06
2019-05-30T23:25:47.003Z,102200.41
2019-05-30T23:28:16.621Z,102199.69
2019-05-30T23:30:46.007Z,102201.19
2019-05-30T23:33:15.582Z,102202.16
2019-05-30T23:35:45.228Z,102203.95
2019-05-30T23:38:14.591Z,102204.83
2019-05-30T23:40:44.047Z,102203.95
2019-05-30T23:43:13.440Z,102202.27
2019-05-30T23:45:42.906Z,102203.70
2019-05-30T23:48:12.540Z,102196.17
2019-05-30T23:50:42.126Z,102197.05
2019-05-30T23:53:11.659Z,102192.55
2019-05-30T23:55:41.044Z,102191.64
2019-05-30T23:58:10.433Z,102190.31
